Grande Prairie Airport
CYQU : now visible

Airfield :











YOU CAN JOIN US ON...

 
LOGIN :

Register | Disclaimer

   EN    FR    IT 

 









Legend :    VFR   Marginal VFR   IFR   Intensive IFR   Very Intensive IFR
Visi :
Ceiling :
>= 8 km
>= 3000ft
5 to 8 km
1000 to 3000 ft
1500m to 5 km
500 to 1000 ft
800 to 1500m
200 to 500 ft
< 800m
< 200 ft
Symbols :   Thunderstorms  Fog  Heavy snow  Heavy precipitations  Wind > 20 kt







- Airport Elevation : 2195 ft
- IATA code : YQU


CYQU - Grande Prairie

CURRENT METAR :
  • 210400Z 20005KT 25SM FEW100 BKN190 09/05 A2988 RMK AC2AC3 SLP136

EXPIRED METARs :
  • 210300Z 22009G15KT 25SM FEW090 BKN240 11/04 A2990 RMK AC2CI3 SLP141 DENSITY ALT 2300FT
  • 210200Z 25011KT 25SM FEW090 SCT240 13/04 A2989 RMK AC2CI2 SLP136 DENSITY ALT 2500FT

TAF TAF CYQU
Valid from the 21 at 01:00 until the 21 at 13:00 UTC


210038Z 2101/2113 24008KT P6SM FEW060 SCT120 BKN240
FM210500 24008KT P6SM SCT060 BKN120 OVC240
FM210900 23008KT P6SM BKN060 OVC120 RMK NXT FCST BY 210700Z
No reported NOTAMs for that airfield.



MET'MAP, your aeronautical weather chart ! - Copyright ORBIFLY December 2007 - Disclaimer

ORBIFLY MET'MAP TEAM :

Programming & Development : Alexandra Zaïnal
Concept & Development : Baudouin d'Aumeries
Co-Development & Prog : Marc-Olivier Méhu
Technical & hardware support : Manuel Goepfert

Contact : metmap@orbifly.com




SOURCES & CREDITS :

   NOAA       Earth
Advisory